Time;durP1;ratioP1;P1;durP2;ratioP2;P2;SDS_P1;SDS_P2;PMS_P1;PMS_P2;Temp;Humidity;BMP_temperature;BMP_pressure;BME280_temperature;BME280_humidity;BME280_pressure;Samples;Min_cycle;Max_cycle;Signal;HPM_P1;HPM_P2
2022/06/21 00:00:43;;;;;;;2.45;2.00;;;14.50;89.80;;;;;;6084145;23;20025;-80
2022/06/21 00:03:16;;;;;;;10.07;2.55;;;14.40;89.00;;;;;;6083180;23;20335;-81
2022/06/21 00:05:44;;;;;;;3.35;1.80;;;14.50;89.30;;;;;;6083860;23;20751;-80
2022/06/21 00:08:18;;;;;;;3.33;1.90;;;14.40;89.40;;;;;;6083258;23;20018;-81
2022/06/21 00:10:45;;;;;;;3.00;1.75;;;14.40;89.60;;;;;;6083557;23;20029;-81
2022/06/21 00:13:15;;;;;;;2.25;1.67;;;14.40;89.80;;;;;;6081863;23;20010;-81
2022/06/21 00:15:43;;;;;;;2.35;1.92;;;14.40;89.90;;;;;;6083472;23;20011;-80
2022/06/21 00:18:14;;;;;;;4.18;2.00;;;14.30;90.00;;;;;;6083489;23;20014;-80
2022/06/21 00:20:41;;;;;;;3.30;1.95;;;14.30;90.10;;;;;;6093513;23;20061;-81
2022/06/21 00:23:14;;;;;;;4.13;2.08;;;14.30;90.00;;;;;;6093086;23;20018;-80
2022/06/21 00:25:41;;;;;;;4.88;2.10;;;14.30;90.00;;;;;;6083650;23;20014;-81
2022/06/21 00:28:08;;;;;;;2.17;1.75;;;14.30;90.00;;;;;;6080750;23;20015;-80
2022/06/21 00:30:34;;;;;;;2.67;1.95;;;14.30;90.00;;;;;;6083480;23;20037;-80
2022/06/21 00:32:59;;;;;;;5.32;1.85;;;14.30;90.00;;;;;;6082817;23;20017;-80
2022/06/21 00:35:26;;;;;;;3.45;1.90;;;14.30;90.00;;;;;;6082869;23;20412;-80
2022/06/21 00:37:53;;;;;;;2.85;1.98;;;14.30;90.00;;;;;;6081143;23;20017;-81
2022/06/21 00:40:29;;;;;;;2.28;1.80;;;14.30;90.00;;;;;;6083284;23;20006;-80
2022/06/21 00:43:04;;;;;;;2.65;1.95;;;14.20;90.00;;;;;;6083797;23;20014;-80
2022/06/21 00:45:40;;;;;;;1.80;1.70;;;14.20;90.10;;;;;;6083714;23;19998;-80
2022/06/21 00:48:21;;;;;;;2.42;1.73;;;14.20;90.20;;;;;;6081971;23;20029;-80
2022/06/21 00:51:25;;;;;;;4.00;1.65;;;14.20;90.10;;;;;;6093105;23;20014;-80
2022/06/21 00:53:56;;;;;;;3.72;1.80;;;14.10;90.10;;;;;;6083207;23;20021;-81
2022/06/21 00:56:34;;;;;;;5.20;1.80;;;14.10;90.00;;;;;;6082803;23;20002;-80
2022/06/21 00:59:18;;;;;;;2.85;1.63;;;14.10;90.00;;;;;;6082430;23;20090;-80
2022/06/21 01:01:44;;;;;;;4.07;2.03;;;14.10;90.00;;;;;;6083165;23;20011;-80
2022/06/21 01:04:39;;;;;;;2.67;1.90;;;14.20;90.00;;;;;;6083137;23;20615;-80
2022/06/21 01:07:08;;;;;;;5.07;2.20;;;14.20;89.90;;;;;;6092590;23;20065;-80
2022/06/21 01:09:45;;;;;;;3.35;1.98;;;14.10;90.00;;;;;;6080889;23;20010;-80
2022/06/21 01:12:24;;;;;;;3.67;1.88;;;14.10;89.80;;;;;;6083506;23;20014;-80
2022/06/21 01:15:02;;;;;;;5.25;1.98;;;14.10;89.70;;;;;;6083002;23;20022;-80
2022/06/21 01:17:30;;;;;;;3.08;1.70;;;14.20;89.60;;;;;;6082780;23;20036;-80
2022/06/21 01:19:59;;;;;;;3.55;1.77;;;14.10;89.70;;;;;;6092386;23;20049;-80
2022/06/21 01:22:53;;;;;;;3.42;2.08;;;14.20;89.50;;;;;;6083589;23;20118;-80
2022/06/21 01:25:49;;;;;;;5.03;2.08;;;14.20;89.50;;;;;;6092452;23;20007;-80
2022/06/21 01:28:15;;;;;;;5.28;2.25;;;14.20;89.80;;;;;;6082315;23;20010;-80
2022/06/21 01:30:49;;;;;;;3.08;2.05;;;14.20;90.00;;;;;;6093052;23;20502;-80
2022/06/21 01:33:17;;;;;;;3.95;2.10;;;14.10;90.00;;;;;;6082994;23;20045;-80
2022/06/21 01:35:51;;;;;;;5.45;2.58;;;14.10;90.00;;;;;;6083472;23;20014;-80
2022/06/21 01:38:27;;;;;;;4.53;2.30;;;14.10;90.00;;;;;;6092509;23;20018;-80
2022/06/21 01:40:59;;;;;;;5.72;2.17;;;14.10;90.00;;;;;;6083031;23;20061;-80
2022/06/21 01:43:28;;;;;;;4.22;2.05;;;14.10;90.00;;;;;;6083056;23;20072;-80
2022/06/21 01:45:58;;;;;;;6.30;2.08;;;14.20;90.00;;;;;;6083187;23;20006;-80
2022/06/21 01:48:29;;;;;;;5.32;2.33;;;14.20;90.00;;;;;;6091690;23;20014;-80
2022/06/21 01:51:03;;;;;;;5.50;2.65;;;14.20;90.10;;;;;;6082959;23;20053;-80
2022/06/21 01:53:29;;;;;;;4.90;2.13;;;14.10;90.10;;;;;;6083002;23;20021;-78
2022/06/21 01:55:58;;;;;;;4.70;2.33;;;14.20;90.20;;;;;;6092177;23;20010;-80
2022/06/21 01:58:29;;;;;;;6.47;2.33;;;14.10;90.10;;;;;;6092041;23;20050;-80
2022/06/21 02:01:00;;;;;;;8.15;2.55;;;14.10;90.30;;;;;;6080901;23;20460;-80
2022/06/21 02:03:31;;;;;;;5.35;2.05;;;14.00;90.30;;;;;;6082736;23;20026;-80
2022/06/21 02:06:02;;;;;;;10.23;2.55;;;14.00;90.20;;;;;;6081070;23;20014;-80
2022/06/21 02:09:02;;;;;;;4.25;2.10;;;14.00;90.30;;;;;;6082771;23;20391;-80
2022/06/21 02:11:38;;;;;;;5.15;2.63;;;14.00;90.40;;;;;;6082878;23;20021;-79
2022/06/21 02:14:30;;;;;;;2.75;1.67;;;14.00;90.40;;;;;;6082364;23;20014;-80
2022/06/21 02:17:18;;;;;;;6.35;2.38;;;14.00;90.40;;;;;;6082983;23;20021;-80
2022/06/21 02:19:45;;;;;;;4.82;2.40;;;14.00;90.40;;;;;;6081874;23;20054;-81
2022/06/21 02:22:19;;;;;;;3.63;1.92;;;13.90;90.40;;;;;;6083207;23;20444;-80
2022/06/21 02:24:46;;;;;;;5.18;2.25;;;14.00;90.40;;;;;;6081010;23;20493;-79
2022/06/21 02:27:15;;;;;;;10.77;2.38;;;13.90;90.50;;;;;;6083057;23;20015;-81
2022/06/21 02:29:43;;;;;;;3.75;2.20;;;13.90;90.60;;;;;;6080766;23;20629;-80
2022/06/21 02:32:19;;;;;;;4.65;2.28;;;13.90;90.70;;;;;;6082646;23;20016;-80
2022/06/21 02:34:47;;;;;;;6.28;2.20;;;13.90;90.70;;;;;;6081374;23;20773;-80
2022/06/21 02:37:15;;;;;;;5.13;2.15;;;13.90;90.70;;;;;;6083197;23;20015;-80
2022/06/21 02:39:42;;;;;;;4.40;2.17;;;13.90;90.70;;;;;;6081871;23;20041;-81
2022/06/21 02:42:32;;;;;;;7.70;2.58;;;13.90;90.90;;;;;;6083066;23;20467;-81
2022/06/21 02:45:07;;;;;;;6.32;2.55;;;13.90;90.90;;;;;;6092025;23;20014;-80
2022/06/21 02:47:42;;;;;;;4.45;2.65;;;13.90;91.00;;;;;;6082594;23;20526;-81
2022/06/21 02:50:42;;;;;;;8.27;2.20;;;13.80;91.50;;;;;;6082413;23;20018;-80
2022/06/21 02:53:28;;;;;;;4.78;2.10;;;13.90;91.20;;;;;;6081926;23;20014;-81
2022/06/21 02:56:09;;;;;;;2.58;2.05;;;13.90;91.20;;;;;;6083216;23;20015;-81
2022/06/21 02:58:42;;;;;;;5.55;2.65;;;13.90;91.20;;;;;;6082789;23;20025;-80
2022/06/21 03:01:23;;;;;;;7.57;2.10;;;13.90;91.30;;;;;;6082879;23;20017;-80
2022/06/21 03:03:50;;;;;;;4.65;2.63;;;13.90;91.40;;;;;;6080920;23;20524;-81
2022/06/21 03:06:19;;;;;;;5.07;2.47;;;13.90;91.50;;;;;;6080681;23;20006;-80
2022/06/21 03:09:08;;;;;;;6.78;2.38;;;13.90;91.50;;;;;;6091365;23;20014;-81
2022/06/21 03:11:39;;;;;;;4.97;2.28;;;13.90;91.50;;;;;;6082353;23;20101;-80
2022/06/21 03:14:08;;;;;;;7.32;2.67;;;13.90;91.50;;;;;;6080726;23;20018;-80
2022/06/21 03:16:34;;;;;;;5.97;2.65;;;13.90;91.50;;;;;;6081815;23;20044;-80
2022/06/21 03:19:06;;;;;;;6.55;2.42;;;13.90;91.60;;;;;;6091780;23;20017;-80
2022/06/21 03:21:35;;;;;;;6.10;2.45;;;13.90;91.50;;;;;;6082113;23;20087;-80
2022/06/21 03:24:05;;;;;;;5.50;2.17;;;13.90;91.60;;;;;;6082363;23;20529;-80
2022/06/21 03:26:34;;;;;;;3.45;1.92;;;13.90;91.60;;;;;;6129733;23;20014;-80
2022/06/21 03:28:59;;;;;;;6.82;2.67;;;13.90;91.60;;;;;;6082595;23;20065;-80
2022/06/21 03:31:42;;;;;;;6.45;2.45;;;13.90;91.60;;;;;;6082288;23;20014;-80
2022/06/21 03:34:16;;;;;;;3.88;2.60;;;13.90;91.70;;;;;;6082667;23;20018;-80
2022/06/21 03:36:42;;;;;;;8.55;2.65;;;13.90;91.70;;;;;;6083025;23;20321;-80
2022/06/21 03:39:13;;;;;;;5.18;2.85;;;13.90;91.70;;;;;;6081514;23;20019;-80
2022/06/21 03:41:43;;;;;;;8.77;2.72;;;13.90;91.80;;;;;;6082801;23;20011;-80
2022/06/21 03:44:31;;;;;;;5.80;2.35;;;13.90;91.90;;;;;;6082139;23;20011;-80
2022/06/21 03:47:12;;;;;;;10.98;2.90;;;13.90;92.00;;;;;;6082021;23;20007;-80
2022/06/21 03:49:54;;;;;;;6.97;3.10;;;14.00;92.00;;;;;;6081423;23;20021;-80
2022/06/21 03:52:44;;;;;;;6.00;2.45;;;14.00;92.10;;;;;;6128926;23;20514;-80
2022/06/21 03:55:17;;;;;;;6.35;2.65;;;14.00;92.10;;;;;;6081577;23;20112;-81
2022/06/21 03:57:58;;;;;;;6.50;3.03;;;14.00;91.90;;;;;;6081204;23;20018;-81
2022/06/21 04:00:29;;;;;;;4.72;2.20;;;14.10;91.90;;;;;;6079225;23;20038;-80
2022/06/21 04:03:06;;;;;;;8.02;3.28;;;14.10;91.70;;;;;;6082040;23;20634;-80
2022/06/21 04:05:40;;;;;;;6.70;2.72;;;14.20;91.70;;;;;;6082255;23;20017;-80
2022/06/21 04:08:18;;;;;;;6.15;2.80;;;14.20;91.70;;;;;;6081499;23;20452;-79
2022/06/21 04:11:07;;;;;;;5.88;2.22;;;14.30;91.70;;;;;;6091519;23;20090;-80
2022/06/21 04:13:47;;;;;;;9.98;2.85;;;14.40;91.60;;;;;;6082348;23;20434;-79
2022/06/21 04:16:29;;;;;;;5.90;2.50;;;14.40;91.50;;;;;;6082055;23;20018;-80
2022/06/21 04:19:13;;;;;;;13.02;2.75;;;14.50;91.60;;;;;;6081916;23;20011;-80
2022/06/21 04:21:47;;;;;;;6.22;2.20;;;14.50;91.30;;;;;;6082107;23;20010;-79
2022/06/21 04:24:37;;;;;;;9.07;2.75;;;14.50;91.30;;;;;;6082030;23;20038;-79
2022/06/21 04:27:26;;;;;;;4.10;2.20;;;14.60;91.30;;;;;;6081710;23;20038;-79
2022/06/21 04:30:07;;;;;;;7.55;2.85;;;14.60;91.30;;;;;;6081100;23;20034;-80
2022/06/21 04:32:48;;;;;;;7.00;2.60;;;14.70;91.20;;;;;;6081984;23;20018;-80
2022/06/21 04:35:29;;;;;;;6.82;2.42;;;14.70;91.20;;;;;;6082898;23;20534;-80
2022/06/21 04:38:07;;;;;;;5.30;2.15;;;14.80;91.00;;;;;;6082852;23;20533;-80
2022/06/21 04:41:01;;;;;;;7.20;3.08;;;14.80;91.00;;;;;;6083420;23;20006;-80
2022/06/21 04:43:33;;;;;;;5.13;2.58;;;14.90;90.90;;;;;;6082843;23;20022;-80
2022/06/21 04:46:20;;;;;;;5.60;2.22;;;15.00;90.70;;;;;;6092605;23;20393;-80
2022/06/21 04:48:58;;;;;;;5.32;2.08;;;15.00;90.70;;;;;;6082872;23;20022;-80
2022/06/21 04:51:34;;;;;;;6.18;2.38;;;15.10;90.60;;;;;;6083087;23;20622;-80
2022/06/21 04:54:04;;;;;;;;;;;15.10;90.60;;;;;;6083037;23;20025;-80
2022/06/21 04:56:30;;;;;;;13.68;2.90;;;15.10;90.50;;;;;;6093474;23;19947;-80
2022/06/21 04:58:57;;;;;;;7.88;2.63;;;15.10;90.60;;;;;;6082544;23;20042;-79
2022/06/21 05:01:29;;;;;;;8.48;2.50;;;15.10;90.50;;;;;;6083253;23;20009;-80
2022/06/21 05:03:58;;;;;;;7.72;3.10;;;15.20;90.60;;;;;;6092979;23;20545;-80
2022/06/21 05:06:25;;;;;;;5.40;2.20;;;15.20;90.60;;;;;;6081224;23;20018;-80
2022/06/21 05:08:52;;;;;;;7.38;2.22;;;15.30;90.50;;;;;;6081065;23;20014;-81
2022/06/21 05:11:20;;;;;;;3.92;1.90;;;15.30;90.40;;;;;;6082792;23;20387;-80
2022/06/21 05:13:52;;;;;;;8.30;2.75;;;15.40;90.30;;;;;;6082391;23;20014;-80
2022/06/21 05:16:23;;;;;;;5.65;2.15;;;15.40;90.40;;;;;;6083199;23;20014;-81
2022/06/21 05:19:12;;;;;;;8.40;2.90;;;15.50;90.20;;;;;;6082056;23;20025;-80
2022/06/21 05:21:49;;;;;;;10.00;2.50;;;15.50;89.90;;;;;;6081739;23;20018;-81
2022/06/21 05:24:16;;;;;;;7.63;2.58;;;15.60;89.80;;;;;;6083081;23;20014;-80
2022/06/21 05:27:17;;;;;;;9.75;2.40;;;15.60;89.90;;;;;;6082289;23;20015;-80
2022/06/21 05:29:57;;;;;;;7.13;2.35;;;15.70;89.90;;;;;;6085389;23;20101;-80
2022/06/21 05:32:32;;;;;;;5.22;1.98;;;15.70;89.40;;;;;;6082544;23;20033;-80
2022/06/21 05:35:04;;;;;;;6.45;2.00;;;15.80;89.40;;;;;;6083034;23;20019;-80
2022/06/21 05:37:36;;;;;;;7.97;2.30;;;15.80;89.20;;;;;;6092412;23;20015;-80
2022/06/21 05:40:19;;;;;;;9.65;2.50;;;15.90;88.60;;;;;;6080060;23;20037;-80
2022/06/21 05:42:44;;;;;;;7.00;1.98;;;16.00;88.30;;;;;;6092428;23;20006;-80
2022/06/21 05:45:14;;;;;;;9.90;2.00;;;16.00;88.40;;;;;;6082573;23;20080;-80
2022/06/21 05:47:47;;;;;;;6.25;2.25;;;16.10;88.40;;;;;;6082928;23;20048;-81
2022/06/21 05:50:18;;;;;;;7.82;2.65;;;16.20;87.30;;;;;;6080346;23;20083;-80
2022/06/21 05:52:54;;;;;;;7.80;1.92;;;16.20;86.60;;;;;;6080884;23;20018;-81
2022/06/21 05:55:31;;;;;;;7.78;2.05;;;16.10;87.10;;;;;;6092617;23;20021;-80
2022/06/21 05:57:59;;;;;;;5.15;2.15;;;16.10;87.10;;;;;;6082804;23;20018;-80
2022/06/21 06:00:46;;;;;;;8.45;2.65;;;16.20;87.70;;;;;;6092098;23;20017;-81
2022/06/21 06:03:14;;;;;;;;;;;16.30;86.80;;;;;;6083221;23;19999;-81
2022/06/21 06:05:42;;;;;;;3.30;1.73;;;16.30;86.60;;;;;;6083063;23;19909;-81
2022/06/21 06:08:12;;;;;;;8.52;2.38;;;16.30;85.40;;;;;;6092271;23;20437;-80
2022/06/21 06:10:41;;;;;;;7.03;2.08;;;16.40;85.90;;;;;;6082747;23;20468;-80
2022/06/21 06:13:14;;;;;;;13.07;2.42;;;16.40;85.90;;;;;;6090828;23;20006;-81
2022/06/21 06:15:50;;;;;;;5.60;1.95;;;16.50;85.60;;;;;;6092356;23;20019;-81
2022/06/21 06:18:22;;;;;;;8.30;2.13;;;16.40;85.30;;;;;;6081140;23;20040;-80
2022/06/21 06:21:13;;;;;;;9.40;2.33;;;16.50;85.40;;;;;;6091783;23;20389;-80
2022/06/21 06:23:51;;;;;;;6.82;2.10;;;16.50;85.50;;;;;;6082602;23;20010;-80
2022/06/21 06:26:20;;;;;;;5.85;2.25;;;16.60;85.40;;;;;;6082784;23;20389;-80
2022/06/21 06:29:00;;;;;;;9.13;2.20;;;16.60;85.00;;;;;;6080122;23;20013;-80
2022/06/21 06:31:46;;;;;;;8.63;1.98;;;16.70;85.90;;;;;;6082980;23;20440;-80
2022/06/21 06:34:16;;;;;;;10.45;2.30;;;16.70;85.00;;;;;;6092234;23;20360;-80
2022/06/21 06:36:43;;;;;;;6.72;2.03;;;16.70;84.70;;;;;;6092762;23;20085;-80
2022/06/21 06:39:30;;;;;;;6.57;2.30;;;16.80;84.20;;;;;;6082642;23;20014;-80
2022/06/21 06:42:08;;;;;;;11.60;1.92;;;16.80;83.70;;;;;;6082384;23;20648;-80
2022/06/21 06:44:38;;;;;;;6.07;2.13;;;16.90;83.60;;;;;;6082519;23;20010;-81
2022/06/21 06:47:13;;;;;;;8.02;1.90;;;16.90;83.70;;;;;;6092567;23;20011;-81
2022/06/21 06:49:44;;;;;;;7.68;1.60;;;16.90;83.80;;;;;;6080845;23;20011;-80
2022/06/21 06:52:23;;;;;;;7.18;2.05;;;17.00;83.20;;;;;;6082562;23;20017;-81
2022/06/21 06:54:55;;;;;;;11.38;2.85;;;17.10;83.00;;;;;;6082956;23;20448;-80
2022/06/21 06:57:37;;;;;;;9.07;1.80;;;17.10;81.10;;;;;;6082524;23;20358;-80
2022/06/21 07:00:30;;;;;;;7.57;1.75;;;17.10;81.90;;;;;;6081904;23;20025;-80
2022/06/21 07:03:11;;;;;;;7.03;2.00;;;17.20;81.00;;;;;;6106988;23;20006;-80
2022/06/21 07:05:43;;;;;;;5.72;1.85;;;17.30;81.40;;;;;;6083225;23;20009;-81
2022/06/21 07:08:25;;;;;;;11.95;2.22;;;17.50;81.50;;;;;;6082751;23;20091;-81
2022/06/21 07:10:53;;;;;;;8.88;1.75;;;17.60;81.00;;;;;;6092144;23;20034;-81
2022/06/21 07:13:20;;;;;;;7.25;1.67;;;17.70;80.30;;;;;;6091989;23;20010;-81
2022/06/21 07:15:48;;;;;;;4.30;1.65;;;17.80;79.20;;;;;;6082690;23;20017;-82
2022/06/21 07:18:20;;;;;;;3.03;1.38;;;17.90;77.60;;;;;;6080226;23;20006;-80
2022/06/21 07:20:46;;;;;;;4.40;1.33;;;18.00;77.40;;;;;;6092036;23;20437;-81
2022/06/21 07:23:24;;;;;;;7.63;1.67;;;18.10;77.20;;;;;;6092374;23;20007;-81
2022/06/21 07:25:54;;;;;;;7.32;1.77;;;18.10;76.90;;;;;;6083044;23;20006;-81
2022/06/21 07:28:23;;;;;;;6.55;1.60;;;18.20;76.60;;;;;;6080289;23;20010;-81
2022/06/21 07:30:52;;;;;;;7.80;1.83;;;18.30;76.60;;;;;;6082539;23;20436;-81
2022/06/21 07:33:40;;;;;;;7.75;1.48;;;18.40;76.00;;;;;;6081088;23;20045;-80
2022/06/21 07:36:19;;;;;;;6.70;2.20;;;18.40;74.60;;;;;;6091147;23;20502;-79
2022/06/21 07:38:56;;;;;;;7.40;2.20;;;18.60;73.60;;;;;;6081293;23;20061;-79
2022/06/21 07:41:26;;;;;;;7.03;1.58;;;18.60;73.10;;;;;;6082550;23;20010;-79
2022/06/21 07:43:57;;;;;;;7.55;1.98;;;18.70;73.70;;;;;;6079394;23;20022;-79
2022/06/21 07:46:36;;;;;;;7.20;1.50;;;18.70;72.90;;;;;;6082374;23;20038;-79
2022/06/21 07:49:25;;;;;;;3.90;1.67;;;18.80;71.90;;;;;;6080751;23;20010;-78
2022/06/21 07:51:57;;;;;;;9.77;1.35;;;18.90;72.20;;;;;;6079747;23;20428;-81
2022/06/21 07:54:44;;;;;;;10.63;2.08;;;19.00;71.20;;;;;;6080960;23;20018;-81
2022/06/21 07:57:19;;;;;;;7.28;1.42;;;19.10;71.30;;;;;;6079998;23;20813;-80
2022/06/21 07:59:59;;;;;;;5.50;1.57;;;19.10;69.00;;;;;;6079685;23;20715;-80
2022/06/21 08:08:16;;;;;;;5.22;1.50;;;19.30;67.00;;;;;;6080687;23;20010;-80
2022/06/21 08:10:54;;;;;;;5.95;1.80;;;19.30;67.10;;;;;;6082139;23;20038;-80
2022/06/21 08:13:20;;;;;;;5.00;1.25;;;19.30;66.20;;;;;;6082300;23;20042;-80
2022/06/21 08:15:52;;;;;;;9.73;1.58;;;19.30;64.60;;;;;;6082831;23;20444;-81
2022/06/21 08:18:40;;;;;;;7.80;1.35;;;19.40;66.10;;;;;;6091607;23;20072;-81
2022/06/21 08:21:12;;;;;;;7.18;1.05;;;19.50;66.10;;;;;;6091733;23;20013;-78
2022/06/21 08:23:47;;;;;;;6.13;2.05;;;19.50;64.10;;;;;;6081514;23;20021;-79
2022/06/21 08:26:22;;;;;;;4.22;1.05;;;19.60;64.70;;;;;;6091158;23;20007;-80
2022/06/21 08:29:07;;;;;;;3.00;1.50;;;19.70;65.20;;;;;;6079543;23;20019;-78
2022/06/21 08:31:36;;;;;;;5.90;1.75;;;19.80;63.80;;;;;;6081578;23;20022;-78
2022/06/21 08:34:17;;;;;;;3.88;1.17;;;19.80;64.10;;;;;;6081266;23;20064;-79
2022/06/21 08:36:49;;;;;;;3.97;1.08;;;19.90;64.00;;;;;;6080541;23;20057;-77
2022/06/21 08:39:20;;;;;;;3.00;1.10;;;20.00;63.70;;;;;;6081374;23;20092;-81
2022/06/21 08:42:19;;;;;;;4.32;1.00;;;20.10;63.50;;;;;;6081839;23;20022;-81
2022/06/21 08:48:22;;;;;;;4.07;1.45;;;20.40;61.00;;;;;;6092257;23;20353;-78
2022/06/21 08:51:22;;;;;;;6.72;1.58;;;20.50;61.80;;;;;;6082775;23;20041;-79
2022/06/21 08:54:25;;;;;;;8.18;1.52;;;20.60;60.60;;;;;;6082685;23;20018;-78
2022/06/21 08:57:09;;;;;;;4.10;0.90;;;20.70;59.20;;;;;;6092285;23;20344;-81
2022/06/21 08:59:50;;;;;;;5.60;1.42;;;20.70;59.90;;;;;;6082995;23;20022;-80
2022/06/21 09:02:37;;;;;;;6.32;1.50;;;20.80;59.80;;;;;;6082646;23;20883;-81
2022/06/21 09:05:27;;;;;;;4.05;1.10;;;20.80;59.20;;;;;;6082321;23;20036;-80
2022/06/21 09:08:18;;;;;;;4.00;1.20;;;20.90;59.30;;;;;;6082498;23;20088;-80
2022/06/21 09:10:43;;;;;;;3.05;0.98;;;21.00;58.90;;;;;;6082225;23;20015;-80
2022/06/21 09:13:32;;;;;;;3.67;1.10;;;21.10;58.60;;;;;;6082238;23;20098;-80
2022/06/21 09:16:13;;;;;;;6.15;1.10;;;21.20;58.10;;;;;;6091717;23;20010;-80
2022/06/21 09:18:59;;;;;;;5.03;1.13;;;21.20;58.20;;;;;;6081307;23;20440;-83
2022/06/21 09:21:53;;;;;;;4.10;1.17;;;21.20;58.50;;;;;;6077162;23;20041;-73
2022/06/21 09:24:49;;;;;;;3.85;1.02;;;21.30;57.80;;;;;;6081491;23;20011;-78
2022/06/21 09:27:35;;;;;;;4.13;1.02;;;21.40;56.90;;;;;;6079303;23;20021;-79
2022/06/21 09:30:15;;;;;;;;;;;21.50;56.40;;;;;;6090981;23;20010;-76
2022/06/21 09:32:47;;;;;;;6.63;1.20;;;21.60;56.40;;;;;;6081002;23;19917;-76
2022/06/21 09:35:13;;;;;;;2.95;1.23;;;21.70;56.00;;;;;;6081592;23;20064;-76
2022/06/21 09:37:58;;;;;;;4.30;1.08;;;21.70;55.70;;;;;;6079307;23;20133;-77
2022/06/21 09:40:29;;;;;;;3.70;1.05;;;21.90;56.70;;;;;;6081043;23;20071;-77
2022/06/21 09:43:21;;;;;;;3.75;1.00;;;22.00;56.10;;;;;;6080893;23;20034;-77
2022/06/21 09:46:03;;;;;;;3.55;1.00;;;21.90;55.10;;;;;;6090758;23;20014;-77
2022/06/21 09:49:04;;;;;;;5.70;1.05;;;21.90;57.20;;;;;;6080119;23;20041;-77
2022/06/21 09:51:55;;;;;;;4.68;0.85;;;22.00;55.90;;;;;;6156107;23;20018;-77
2022/06/21 09:54:35;;;;;;;6.00;1.13;;;21.90;55.60;;;;;;6081029;23;20567;-77
2022/06/21 09:57:19;;;;;;;7.03;1.13;;;21.90;56.00;;;;;;6080011;23;20064;-74
2022/06/21 09:59:48;;;;;;;3.35;1.00;;;22.00;56.90;;;;;;6080776;23;20042;-77
2022/06/21 10:02:45;;;;;;;6.78;2.10;;;22.00;56.20;;;;;;6080236;23;20607;-77
2022/06/21 10:05:42;;;;;;;4.45;1.33;;;22.10;56.60;;;;;;6081262;23;20693;-77
2022/06/21 10:08:10;;;;;;;3.08;1.05;;;22.10;55.40;;;;;;6077976;23;20102;-77
2022/06/21 10:11:05;;;;;;;6.53;1.40;;;22.30;56.40;;;;;;6090137;23;20014;-78
2022/06/21 10:14:00;;;;;;;6.70;1.30;;;22.40;56.40;;;;;;6080926;23;20329;-73
2022/06/21 10:16:47;;;;;;;8.63;1.48;;;22.40;55.80;;;;;;6081284;23;20036;-79
2022/06/21 10:19:39;;;;;;;3.90;1.13;;;22.50;56.70;;;;;;6078317;23;20222;-81
2022/06/21 10:22:27;;;;;;;4.30;1.40;;;22.60;55.00;;;;;;6081403;23;20014;-78
2022/06/21 10:25:17;;;;;;;3.13;1.08;;;22.60;56.60;;;;;;6079925;23;20015;-77
2022/06/21 10:27:55;;;;;;;3.70;1.05;;;22.60;54.60;;;;;;6091144;23;20007;-77
2022/06/21 10:30:39;;;;;;;3.50;1.02;;;22.60;53.90;;;;;;6081311;23;20014;-77
2022/06/21 10:33:52;;;;;;;5.72;1.00;;;22.60;53.00;;;;;;6079515;23;20019;-77
2022/06/21 10:36:18;;;;;;;3.25;0.75;;;22.70;53.60;;;;;;6079261;23;20097;-77
2022/06/21 10:38:44;;;;;;;4.75;1.02;;;22.80;53.80;;;;;;6081290;23;20041;-77
2022/06/21 10:42:46;;;;;;;4.93;1.13;;;22.90;52.60;;;;;;6081349;23;20210;-77
2022/06/21 10:45:06;;;;;;;7.00;1.33;;;22.90;51.70;;;;;;6088851;23;20093;-79
2022/06/21 10:48:08;;;;;;;7.72;1.33;;;22.80;53.50;;;;;;6089780;23;20021;-78
2022/06/21 10:51:02;;;;;;;7.55;1.10;;;22.90;53.40;;;;;;6081466;23;20072;-80
2022/06/21 10:54:16;;;;;;;2.78;0.88;;;23.00;52.30;;;;;;6090700;23;20435;-71
2022/06/21 10:57:19;;;;;;;2.47;0.82;;;23.10;52.40;;;;;;6080512;23;20011;-71
2022/06/21 11:03:38;;;;;;;4.15;1.00;;;23.20;52.00;;;;;;6090434;23;20021;-73
2022/06/21 11:06:10;;;;;;;3.55;0.80;;;23.40;52.30;;;;;;6090542;23;20017;-78
2022/06/21 11:08:58;;;;;;;3.42;1.00;;;23.50;49.40;;;;;;6081016;23;20022;-79
2022/06/21 11:11:48;;;;;;;2.05;0.70;;;23.50;50.60;;;;;;6091610;23;20018;-78
2022/06/21 11:14:54;;;;;;;3.22;0.75;;;23.60;49.10;;;;;;6081556;23;20329;-78
2022/06/21 11:17:47;;;;;;;5.47;1.17;;;23.60;50.30;;;;;;6133570;23;20026;-79
2022/06/21 11:20:27;;;;;;;2.42;0.85;;;23.70;51.60;;;;;;6106475;23;20025;-79
2022/06/21 11:23:12;;;;;;;1.58;0.80;;;23.70;50.00;;;;;;6082368;23;20029;-78
2022/06/21 11:25:45;;;;;;;4.57;0.85;;;23.80;49.80;;;;;;6081818;23;20014;-78
2022/06/21 11:28:34;;;;;;;7.32;1.00;;;23.80;49.10;;;;;;6081605;23;20020;-79
2022/06/21 11:31:28;;;;;;;4.60;1.00;;;23.80;48.80;;;;;;6091632;23;20014;-80
2022/06/21 11:34:19;;;;;;;2.35;0.98;;;23.90;50.00;;;;;;6090295;23;20076;-79
2022/06/21 11:37:16;;;;;;;3.88;0.80;;;24.00;50.60;;;;;;6081290;23;20015;-78
2022/06/21 11:40:19;;;;;;;3.92;0.90;;;24.00;48.10;;;;;;6080907;23;20023;-78
2022/06/21 11:42:51;;;;;;;3.10;0.80;;;24.00;47.60;;;;;;6080522;23;20015;-77
2022/06/21 11:45:38;;;;;;;0.80;0.65;;;24.10;48.00;;;;;;6079896;23;20015;-79
2022/06/21 11:48:13;;;;;;;4.00;0.98;;;24.10;47.40;;;;;;6079524;23;20101;-79
2022/06/21 11:50:55;;;;;;;3.95;1.02;;;24.00;49.40;;;;;;6081907;23;20061;-78
2022/06/21 11:53:44;;;;;;;3.10;0.85;;;24.00;48.80;;;;;;6091754;23;20105;-79
2022/06/21 11:56:37;;;;;;;5.07;1.50;;;24.00;47.60;;;;;;6090964;23;20021;-77
2022/06/21 11:59:19;;;;;;;3.38;0.77;;;24.00;47.60;;;;;;6081756;23;20061;-74
2022/06/21 12:02:09;;;;;;;5.05;0.93;;;24.00;48.10;;;;;;6082703;23;20061;-78
2022/06/21 12:04:46;;;;;;;3.85;0.98;;;24.10;48.10;;;;;;6082899;23;20033;-79
2022/06/21 12:07:26;;;;;;;3.85;1.27;;;24.20;48.50;;;;;;6082636;23;20010;-78
2022/06/21 12:09:59;;;;;;;4.38;0.90;;;24.20;46.60;;;;;;6082630;23;20590;-78
2022/06/21 12:12:57;;;;;;;4.00;1.15;;;24.20;48.30;;;;;;6082894;23;20042;-79
2022/06/21 12:15:32;;;;;;;4.07;0.90;;;24.20;46.90;;;;;;6116148;23;20397;-78
2022/06/21 12:18:15;;;;;;;3.85;0.85;;;24.30;46.50;;;;;;6082280;23;20084;-76
2022/06/21 12:20:47;;;;;;;2.45;0.90;;;24.40;44.80;;;;;;6092032;23;20503;-75
2022/06/21 12:23:20;;;;;;;2.13;0.70;;;24.40;45.10;;;;;;6080688;23;20034;-77
2022/06/21 12:25:46;;;;;;;3.65;0.90;;;24.30;45.30;;;;;;6082272;23;20056;-79
2022/06/21 12:28:20;;;;;;;3.40;0.93;;;24.40;45.90;;;;;;6081920;23;20049;-80
2022/06/21 12:30:47;;;;;;;5.10;1.02;;;24.40;46.90;;;;;;6091734;23;20054;-79
2022/06/21 12:33:16;;;;;;;3.78;0.88;;;24.50;45.40;;;;;;6091915;23;20017;-79
2022/06/21 12:35:56;;;;;;;4.28;0.88;;;24.60;46.30;;;;;;6092418;23;20053;-79
2022/06/21 12:38:30;;;;;;;2.25;0.80;;;24.60;44.90;;;;;;6082161;23;20038;-80
2022/06/21 12:41:04;;;;;;;3.85;1.00;;;24.70;45.60;;;;;;6080992;23;20716;-74
2022/06/21 12:43:43;;;;;;;5.47;0.98;;;24.70;46.50;;;;;;6083067;23;20010;-81
2022/06/21 12:46:21;;;;;;;2.88;0.68;;;24.60;45.20;;;;;;6082854;23;20041;-81
2022/06/21 12:49:03;;;;;;;2.78;1.10;;;24.50;46.50;;;;;;6082893;23;20440;-81
2022/06/21 12:51:38;;;;;;;2.40;0.70;;;24.40;46.00;;;;;;6130028;23;20014;-81
2022/06/21 12:54:10;;;;;;;3.73;1.17;;;24.40;44.40;;;;;;6082125;23;20018;-81
2022/06/21 12:56:50;;;;;;;3.88;0.90;;;24.40;47.30;;;;;;6079306;23;20327;-82
2022/06/21 12:59:51;;;;;;;3.25;0.82;;;24.50;46.50;;;;;;6081141;23;20040;-82
2022/06/21 13:02:55;;;;;;;3.85;1.00;;;24.50;45.60;;;;;;6092076;23;20014;-74
2022/06/21 13:05:46;;;;;;;5.78;1.13;;;24.60;45.40;;;;;;6099839;23;20018;-76
2022/06/21 13:08:22;;;;;;;3.70;0.85;;;24.60;45.10;;;;;;6080284;23;20020;-75
2022/06/21 13:11:08;;;;;;;;;;;24.60;47.10;;;;;;6082570;23;20577;-76
2022/06/21 13:13:53;;;;;;;5.75;0.80;;;24.60;44.20;;;;;;6081861;23;19988;-76
2022/06/21 13:16:44;;;;;;;3.28;0.90;;;24.60;43.90;;;;;;6091407;23;20030;-75
2022/06/21 13:19:30;;;;;;;3.65;1.27;;;24.60;43.80;;;;;;6090913;23;20033;-76
2022/06/21 13:22:25;;;;;;;1.10;0.60;;;24.60;44.30;;;;;;6081512;23;20011;-77
2022/06/21 13:25:02;;;;;;;2.00;0.60;;;24.40;43.90;;;;;;6120869;23;20030;-77
2022/06/21 13:27:40;;;;;;;3.10;0.73;;;24.30;44.40;;;;;;6082351;23;20010;-77
2022/06/21 13:30:30;;;;;;;1.73;0.93;;;24.40;45.30;;;;;;6080400;23;20018;-76
2022/06/21 13:33:24;;;;;;;5.15;1.30;;;24.30;42.80;;;;;;6079960;23;20101;-76
2022/06/21 13:36:07;;;;;;;3.00;0.93;;;24.40;43.40;;;;;;6082694;23;20072;-75
2022/06/21 13:38:49;;;;;;;1.60;0.90;;;24.50;43.90;;;;;;6081843;23;20015;-75
2022/06/21 13:44:43;;;;;;;0.95;0.55;;;24.60;44.30;;;;;;6103160;23;20437;-77
2022/06/21 13:47:20;;;;;;;2.72;0.88;;;24.50;44.40;;;;;;6082654;23;20014;-76
2022/06/21 13:49:51;;;;;;;2.47;0.90;;;24.60;44.80;;;;;;6091878;23;20033;-78
2022/06/21 13:52:47;;;;;;;4.85;0.77;;;24.60;45.00;;;;;;6091894;23;20453;-77
2022/06/21 13:55:40;;;;;;;3.67;0.88;;;24.60;44.90;;;;;;6085216;23;20018;-77
2022/06/21 13:58:17;;;;;;;2.03;0.80;;;24.70;44.10;;;;;;6091016;23;20053;-77
2022/06/21 14:00:57;;;;;;;3.15;0.80;;;24.60;43.50;;;;;;6081939;23;20062;-77
2022/06/21 14:03:48;;;;;;;4.15;0.73;;;24.60;45.00;;;;;;6080442;23;20015;-76